sensor_id;sensor_type;location;lat;lon;timestamp;temperature;humidity
64652;HTU21D;51062;45.120;37.660;2023-03-01T00:00:59;5.89;64.06
64652;HTU21D;51062;45.120;37.660;2023-03-01T00:03:26;5.83;64.05
64652;HTU21D;51062;45.120;37.660;2023-03-01T00:05:52;5.78;64.03
64652;HTU21D;51062;45.120;37.660;2023-03-01T00:08:19;5.68;64.05
64652;HTU21D;51062;45.120;37.660;2023-03-01T00:10:45;5.61;64.06
64652;HTU21D;51062;45.120;37.660;2023-03-01T00:13:11;5.50;64.10
64652;HTU21D;51062;45.120;37.660;2023-03-01T00:15:41;5.40;64.21
64652;HTU21D;51062;45.120;37.660;2023-03-01T00:18:08;5.31;64.28
64652;HTU21D;51062;45.120;37.660;2023-03-01T00:20:34;5.24;64.34
64652;HTU21D;51062;45.120;37.660;2023-03-01T00:23:00;5.17;64.38
64652;HTU21D;51062;45.120;37.660;2023-03-01T00:25:26;5.16;64.31
64652;HTU21D;51062;45.120;37.660;2023-03-01T00:27:52;5.11;64.30
64652;HTU21D;51062;45.120;37.660;2023-03-01T00:30:19;5.08;64.25
64652;HTU21D;51062;45.120;37.660;2023-03-01T00:32:45;5.07;64.21
64652;HTU21D;51062;45.120;37.660;2023-03-01T00:35:11;5.05;64.15
64652;HTU21D;51062;45.120;37.660;2023-03-01T00:37:37;5.04;64.14
64652;HTU21D;51062;45.120;37.660;2023-03-01T00:40:03;5.02;64.04
64652;HTU21D;51062;45.120;37.660;2023-03-01T00:42:31;5.01;63.99
64652;HTU21D;51062;45.120;37.660;2023-03-01T00:44:57;4.98;63.92
64652;HTU21D;51062;45.120;37.660;2023-03-01T00:47:24;4.92;63.98
64652;HTU21D;51062;45.120;37.660;2023-03-01T00:49:50;4.89;64.01
64652;HTU21D;51062;45.120;37.660;2023-03-01T00:52:16;4.87;64.02
64652;HTU21D;51062;45.120;37.660;2023-03-01T00:54:42;4.82;64.05
64652;HTU21D;51062;45.120;37.660;2023-03-01T00:57:08;4.76;64.14
64652;HTU21D;51062;45.120;37.660;2023-03-01T00:59:34;4.72;64.27
64652;HTU21D;51062;45.120;37.660;2023-03-01T01:02:00;4.68;64.31
64652;HTU21D;51062;45.120;37.660;2023-03-01T01:04:26;4.68;64.27
64652;HTU21D;51062;45.120;37.660;2023-03-01T01:06:52;4.67;64.24
64652;HTU21D;51062;45.120;37.660;2023-03-01T01:09:18;4.67;64.19
64652;HTU21D;51062;45.120;37.660;2023-03-01T01:11:49;4.66;64.16
64652;HTU21D;51062;45.120;37.660;2023-03-01T01:14:17;4.64;64.08
64652;HTU21D;51062;45.120;37.660;2023-03-01T01:16:43;4.59;64.03
64652;HTU21D;51062;45.120;37.660;2023-03-01T01:19:10;4.57;64.04
64652;HTU21D;51062;45.120;37.660;2023-03-01T01:21:37;4.50;64.11
64652;HTU21D;51062;45.120;37.660;2023-03-01T01:24:04;4.46;64.26
64652;HTU21D;51062;45.120;37.660;2023-03-01T01:26:33;4.46;64.29
64652;HTU21D;51062;45.120;37.660;2023-03-01T01:29:01;4.46;64.26
64652;HTU21D;51062;45.120;37.660;2023-03-01T01:31:28;4.47;64.23
64652;HTU21D;51062;45.120;37.660;2023-03-01T01:33:55;4.45;64.26
64652;HTU21D;51062;45.120;37.660;2023-03-01T01:36:22;4.44;64.24
64652;HTU21D;51062;45.120;37.660;2023-03-01T01:38:48;4.39;64.28
64652;HTU21D;51062;45.120;37.660;2023-03-01T01:41:16;4.36;64.42
64652;HTU21D;51062;45.120;37.660;2023-03-01T01:43:44;4.33;64.48
64652;HTU21D;51062;45.120;37.660;2023-03-01T01:46:28;4.34;64.46
64652;HTU21D;51062;45.120;37.660;2023-03-01T01:49:01;4.35;64.34
64652;HTU21D;51062;45.120;37.660;2023-03-01T01:51:38;4.33;64.28
64652;HTU21D;51062;45.120;37.660;2023-03-01T01:54:11;4.30;64.25
64652;HTU21D;51062;45.120;37.660;2023-03-01T01:56:41;4.26;64.24
64652;HTU21D;51062;45.120;37.660;2023-03-01T01:59:10;4.21;64.31
64652;HTU21D;51062;45.120;37.660;2023-03-01T02:01:37;4.20;64.37
64652;HTU21D;51062;45.120;37.660;2023-03-01T02:04:03;4.18;64.37
64652;HTU21D;51062;45.120;37.660;2023-03-01T02:06:44;4.16;64.40
64652;HTU21D;51062;45.120;37.660;2023-03-01T02:09:14;4.14;64.43
64652;HTU21D;51062;45.120;37.660;2023-03-01T02:11:42;4.12;64.54
64652;HTU21D;51062;45.120;37.660;2023-03-01T02:14:09;4.13;64.51
64652;HTU21D;51062;45.120;37.660;2023-03-01T02:16:36;4.15;64.46
64652;HTU21D;51062;45.120;37.660;2023-03-01T02:19:03;4.13;64.48
64652;HTU21D;51062;45.120;37.660;2023-03-01T02:21:53;4.10;64.60
64652;HTU21D;51062;45.120;37.660;2023-03-01T02:24:43;4.10;64.61
64652;HTU21D;51062;45.120;37.660;2023-03-01T02:27:12;4.09;64.57
64652;HTU21D;51062;45.120;37.660;2023-03-01T02:29:38;4.07;64.63
64652;HTU21D;51062;45.120;37.660;2023-03-01T02:32:04;4.09;64.61
64652;HTU21D;51062;45.120;37.660;2023-03-01T02:34:32;4.09;64.59
64652;HTU21D;51062;45.120;37.660;2023-03-01T02:37:11;4.06;64.66
64652;HTU21D;51062;45.120;37.660;2023-03-01T02:39:44;4.06;64.65
64652;HTU21D;51062;45.120;37.660;2023-03-01T02:42:18;4.04;64.66
64652;HTU21D;51062;45.120;37.660;2023-03-01T02:44:48;4.03;64.67
64652;HTU21D;51062;45.120;37.660;2023-03-01T02:47:15;4.00;64.69
64652;HTU21D;51062;45.120;37.660;2023-03-01T02:49:41;4.00;64.72
64652;HTU21D;51062;45.120;37.660;2023-03-01T02:54:58;3.99;64.72
64652;HTU21D;51062;45.120;37.660;2023-03-01T02:57:28;3.98;64.79
64652;HTU21D;51062;45.120;37.660;2023-03-01T02:59:56;4.00;64.83
64652;HTU21D;51062;45.120;37.660;2023-03-01T03:02:26;4.02;64.84
64652;HTU21D;51062;45.120;37.660;2023-03-01T03:05:19;4.02;64.73
64652;HTU21D;51062;45.120;37.660;2023-03-01T03:07:47;4.03;64.71
64652;HTU21D;51062;45.120;37.660;2023-03-01T03:10:17;4.03;64.76
64652;HTU21D;51062;45.120;37.660;2023-03-01T03:12:49;4.03;64.71
64652;HTU21D;51062;45.120;37.660;2023-03-01T03:15:17;4.03;64.69
64652;HTU21D;51062;45.120;37.660;2023-03-01T03:17:43;4.02;64.77
64652;HTU21D;51062;45.120;37.660;2023-03-01T03:20:12;4.02;64.81
64652;HTU21D;51062;45.120;37.660;2023-03-01T03:22:39;4.01;64.85
64652;HTU21D;51062;45.120;37.660;2023-03-01T03:25:07;4.01;64.84
64652;HTU21D;51062;45.120;37.660;2023-03-01T03:27:40;4.02;64.90
64652;HTU21D;51062;45.120;37.660;2023-03-01T03:30:11;4.04;64.86
64652;HTU21D;51062;45.120;37.660;2023-03-01T03:32:43;4.06;64.87
64652;HTU21D;51062;45.120;37.660;2023-03-01T03:35:25;4.06;64.85
64652;HTU21D;51062;45.120;37.660;2023-03-01T03:37:52;4.08;64.89
64652;HTU21D;51062;45.120;37.660;2023-03-01T03:40:39;4.14;64.91
64652;HTU21D;51062;45.120;37.660;2023-03-01T03:43:08;4.17;64.79
64652;HTU21D;51062;45.120;37.660;2023-03-01T03:45:35;4.18;64.76
64652;HTU21D;51062;45.120;37.660;2023-03-01T03:48:02;4.17;64.72
64652;HTU21D;51062;45.120;37.660;2023-03-01T03:50:30;4.14;64.76
64652;HTU21D;51062;45.120;37.660;2023-03-01T03:52:56;4.10;64.81
64652;HTU21D;51062;45.120;37.660;2023-03-01T03:55:22;4.09;64.86
64652;HTU21D;51062;45.120;37.660;2023-03-01T03:57:48;4.07;64.90
64652;HTU21D;51062;45.120;37.660;2023-03-01T04:00:19;4.06;64.91
64652;HTU21D;51062;45.120;37.660;2023-03-01T04:02:47;4.05;64.89
64652;HTU21D;51062;45.120;37.660;2023-03-01T04:05:15;4.02;64.90
64652;HTU21D;51062;45.120;37.660;2023-03-01T04:07:42;4.01;64.96
64652;HTU21D;51062;45.120;37.660;2023-03-01T04:10:15;4.00;64.96
64652;HTU21D;51062;45.120;37.660;2023-03-01T04:12:41;4.02;64.95
64652;HTU21D;51062;45.120;37.660;2023-03-01T04:15:10;4.01;64.95
64652;HTU21D;51062;45.120;37.660;2023-03-01T04:17:40;3.99;64.94
64652;HTU21D;51062;45.120;37.660;2023-03-01T04:20:12;3.99;64.94
64652;HTU21D;51062;45.120;37.660;2023-03-01T04:22:39;3.97;64.96
64652;HTU21D;51062;45.120;37.660;2023-03-01T04:25:06;3.94;65.03
64652;HTU21D;51062;45.120;37.660;2023-03-01T04:27:36;3.93;65.11
64652;HTU21D;51062;45.120;37.660;2023-03-01T04:30:03;3.94;65.14
64652;HTU21D;51062;45.120;37.660;2023-03-01T04:32:29;3.98;65.18
64652;HTU21D;51062;45.120;37.660;2023-03-01T04:34:55;4.02;65.22
64652;HTU21D;51062;45.120;37.660;2023-03-01T04:37:21;4.08;65.16
64652;HTU21D;51062;45.120;37.660;2023-03-01T04:39:47;4.10;65.09
64652;HTU21D;51062;45.120;37.660;2023-03-01T04:42:17;4.10;65.12
64652;HTU21D;51062;45.120;37.660;2023-03-01T04:44:43;4.10;65.16
64652;HTU21D;51062;45.120;37.660;2023-03-01T04:47:10;4.12;65.17
64652;HTU21D;51062;45.120;37.660;2023-03-01T04:49:36;4.08;65.24
64652;HTU21D;51062;45.120;37.660;2023-03-01T04:52:03;4.09;65.30
64652;HTU21D;51062;45.120;37.660;2023-03-01T04:54:33;4.12;65.30
64652;HTU21D;51062;45.120;37.660;2023-03-01T04:57:01;4.12;65.32
64652;HTU21D;51062;45.120;37.660;2023-03-01T04:59:27;4.13;65.28
64652;HTU21D;51062;45.120;37.660;2023-03-01T05:01:55;4.16;65.27
64652;HTU21D;51062;45.120;37.660;2023-03-01T05:04:22;4.16;65.25
64652;HTU21D;51062;45.120;37.660;2023-03-01T05:06:48;4.17;65.23
64652;HTU21D;51062;45.120;37.660;2023-03-01T05:09:14;4.17;65.26
64652;HTU21D;51062;45.120;37.660;2023-03-01T05:11:41;4.18;65.30
64652;HTU21D;51062;45.120;37.660;2023-03-01T05:14:08;4.18;65.36
64652;HTU21D;51062;45.120;37.660;2023-03-01T05:16:35;4.19;65.37
64652;HTU21D;51062;45.120;37.660;2023-03-01T05:19:03;4.19;65.40
64652;HTU21D;51062;45.120;37.660;2023-03-01T05:21:39;4.21;65.42
64652;HTU21D;51062;45.120;37.660;2023-03-01T05:24:26;4.23;65.40
64652;HTU21D;51062;45.120;37.660;2023-03-01T05:26:53;4.26;65.43
64652;HTU21D;51062;45.120;37.660;2023-03-01T05:29:24;4.30;65.46
64652;HTU21D;51062;45.120;37.660;2023-03-01T05:31:58;4.33;65.47
64652;HTU21D;51062;45.120;37.660;2023-03-01T05:34:25;4.36;65.43
64652;HTU21D;51062;45.120;37.660;2023-03-01T05:36:53;4.38;65.40
64652;HTU21D;51062;45.120;37.660;2023-03-01T05:39:20;4.42;65.45
64652;HTU21D;51062;45.120;37.660;2023-03-01T05:41:51;4.45;65.43
64652;HTU21D;51062;45.120;37.660;2023-03-01T05:44:17;4.47;65.45
64652;HTU21D;51062;45.120;37.660;2023-03-01T05:46:43;4.50;65.44
64652;HTU21D;51062;45.120;37.660;2023-03-01T05:49:11;4.52;65.48
64652;HTU21D;51062;45.120;37.660;2023-03-01T05:51:42;4.54;65.53
64652;HTU21D;51062;45.120;37.660;2023-03-01T05:54:10;4.59;65.51
64652;HTU21D;51062;45.120;37.660;2023-03-01T05:56:36;4.61;65.51
64652;HTU21D;51062;45.120;37.660;2023-03-01T05:59:04;4.64;65.56
64652;HTU21D;51062;45.120;37.660;2023-03-01T06:01:31;4.72;65.57
64652;HTU21D;51062;45.120;37.660;2023-03-01T06:04:00;4.76;65.41
64652;HTU21D;51062;45.120;37.660;2023-03-01T06:06:26;4.76;65.45
64652;HTU21D;51062;45.120;37.660;2023-03-01T06:08:53;4.75;65.49
64652;HTU21D;51062;45.120;37.660;2023-03-01T06:11:20;4.76;65.52
64652;HTU21D;51062;45.120;37.660;2023-03-01T06:13:47;4.77;65.46
64652;HTU21D;51062;45.120;37.660;2023-03-01T06:16:14;4.76;65.47
64652;HTU21D;51062;45.120;37.660;2023-03-01T06:18:41;4.73;65.52
64652;HTU21D;51062;45.120;37.660;2023-03-01T06:21:07;4.71;65.56
64652;HTU21D;51062;45.120;37.660;2023-03-01T06:23:34;4.69;65.64
64652;HTU21D;51062;45.120;37.660;2023-03-01T06:26:04;4.71;65.63
64652;HTU21D;51062;45.120;37.660;2023-03-01T06:28:30;4.71;65.68
64652;HTU21D;51062;45.120;37.660;2023-03-01T06:30:56;4.73;65.74
64652;HTU21D;51062;45.120;37.660;2023-03-01T06:33:23;4.75;65.69
64652;HTU21D;51062;45.120;37.660;2023-03-01T06:35:50;4.74;65.64
64652;HTU21D;51062;45.120;37.660;2023-03-01T06:38:16;4.71;65.69
64652;HTU21D;51062;45.120;37.660;2023-03-01T06:40:51;4.73;65.85
64652;HTU21D;51062;45.120;37.660;2023-03-01T06:43:18;4.79;65.85
64652;HTU21D;51062;45.120;37.660;2023-03-01T06:45:44;4.84;65.70
64652;HTU21D;51062;45.120;37.660;2023-03-01T06:48:11;4.86;65.72
64652;HTU21D;51062;45.120;37.660;2023-03-01T06:50:37;4.90;65.72
64652;HTU21D;51062;45.120;37.660;2023-03-01T06:53:04;4.94;65.65
64652;HTU21D;51062;45.120;37.660;2023-03-01T06:55:30;4.95;65.63
64652;HTU21D;51062;45.120;37.660;2023-03-01T06:57:58;4.94;65.60
64652;HTU21D;51062;45.120;37.660;2023-03-01T07:00:25;4.90;65.66
64652;HTU21D;51062;45.120;37.660;2023-03-01T07:02:52;4.89;65.66
64652;HTU21D;51062;45.120;37.660;2023-03-01T07:05:18;4.91;65.79
64652;HTU21D;51062;45.120;37.660;2023-03-01T07:07:44;5.00;65.82
64652;HTU21D;51062;45.120;37.660;2023-03-01T07:10:11;5.10;65.70
64652;HTU21D;51062;45.120;37.660;2023-03-01T07:12:37;5.21;65.74
64652;HTU21D;51062;45.120;37.660;2023-03-01T07:15:04;5.36;65.67
64652;HTU21D;51062;45.120;37.660;2023-03-01T07:17:30;5.50;65.59
64652;HTU21D;51062;45.120;37.660;2023-03-01T07:19:56;5.64;65.40
64652;HTU21D;51062;45.120;37.660;2023-03-01T07:22:22;5.72;65.30
64652;HTU21D;51062;45.120;37.660;2023-03-01T07:24:48;5.81;65.34
64652;HTU21D;51062;45.120;37.660;2023-03-01T07:27:14;5.95;65.17
64652;HTU21D;51062;45.120;37.660;2023-03-01T07:29:41;6.05;65.10
64652;HTU21D;51062;45.120;37.660;2023-03-01T07:32:10;6.13;64.92
64652;HTU21D;51062;45.120;37.660;2023-03-01T07:34:37;6.16;65.01
64652;HTU21D;51062;45.120;37.660;2023-03-01T07:37:03;6.20;64.86
64652;HTU21D;51062;45.120;37.660;2023-03-01T07:39:29;6.27;64.91
64652;HTU21D;51062;45.120;37.660;2023-03-01T07:41:55;6.36;64.98
64652;HTU21D;51062;45.120;37.660;2023-03-01T07:44:22;6.55;64.72
64652;HTU21D;51062;45.120;37.660;2023-03-01T07:46:48;6.59;64.45
64652;HTU21D;51062;45.120;37.660;2023-03-01T07:49:14;6.59;64.48
64652;HTU21D;51062;45.120;37.660;2023-03-01T07:51:40;6.60;64.53
64652;HTU21D;51062;45.120;37.660;2023-03-01T07:54:06;6.61;64.51
64652;HTU21D;51062;45.120;37.660;2023-03-01T07:56:32;6.58;64.56
64652;HTU21D;51062;45.120;37.660;2023-03-01T07:58:59;6.55;64.59
64652;HTU21D;51062;45.120;37.660;2023-03-01T08:01:25;6.57;64.69
64652;HTU21D;51062;45.120;37.660;2023-03-01T08:03:51;6.60;64.80
64652;HTU21D;51062;45.120;37.660;2023-03-01T08:06:18;6.78;64.83
64652;HTU21D;51062;45.120;37.660;2023-03-01T08:08:45;7.15;64.63
64652;HTU21D;51062;45.120;37.660;2023-03-01T08:11:12;7.49;64.05
64652;HTU21D;51062;45.120;37.660;2023-03-01T08:13:39;7.74;63.65
64652;HTU21D;51062;45.120;37.660;2023-03-01T08:16:07;7.94;63.36
64652;HTU21D;51062;45.120;37.660;2023-03-01T08:18:34;8.01;63.20
64652;HTU21D;51062;45.120;37.660;2023-03-01T08:21:08;8.04;63.32
64652;HTU21D;51062;45.120;37.660;2023-03-01T08:23:34;8.15;63.21
64652;HTU21D;51062;45.120;37.660;2023-03-01T08:28:37;8.17;63.17
64652;HTU21D;51062;45.120;37.660;2023-03-01T08:31:17;8.11;63.24
64652;HTU21D;51062;45.120;37.660;2023-03-01T08:33:44;8.07;63.27
64652;HTU21D;51062;45.120;37.660;2023-03-01T08:36:10;8.03;63.34
64652;HTU21D;51062;45.120;37.660;2023-03-01T08:38:36;7.99;63.36
64652;HTU21D;51062;45.120;37.660;2023-03-01T08:41:03;7.93;63.34
64652;HTU21D;51062;45.120;37.660;2023-03-01T08:43:29;7.86;63.44
64652;HTU21D;51062;45.120;37.660;2023-03-01T08:45:55;7.81;63.61
64652;HTU21D;51062;45.120;37.660;2023-03-01T08:48:22;7.77;63.58
64652;HTU21D;51062;45.120;37.660;2023-03-01T08:50:48;7.75;63.60
64652;HTU21D;51062;45.120;37.660;2023-03-01T08:53:14;7.73;63.63
64652;HTU21D;51062;45.120;37.660;2023-03-01T08:55:40;7.75;63.69
64652;HTU21D;51062;45.120;37.660;2023-03-01T08:58:06;7.73;63.64
64652;HTU21D;51062;45.120;37.660;2023-03-01T09:00:32;7.74;63.67
64652;HTU21D;51062;45.120;37.660;2023-03-01T09:03:00;7.73;63.56
64652;HTU21D;51062;45.120;37.660;2023-03-01T09:05:27;7.70;63.69
64652;HTU21D;51062;45.120;37.660;2023-03-01T09:07:53;7.74;63.73
64652;HTU21D;51062;45.120;37.660;2023-03-01T09:10:19;7.77;63.61
64652;HTU21D;51062;45.120;37.660;2023-03-01T09:12:45;7.85;63.69
64652;HTU21D;51062;45.120;37.660;2023-03-01T09:15:11;7.94;63.58
64652;HTU21D;51062;45.120;37.660;2023-03-01T09:17:37;8.06;63.44
64652;HTU21D;51062;45.120;37.660;2023-03-01T09:20:03;8.15;63.27
64652;HTU21D;51062;45.120;37.660;2023-03-01T09:22:33;8.16;63.01
64652;HTU21D;51062;45.120;37.660;2023-03-01T09:25:00;8.12;63.11
64652;HTU21D;51062;45.120;37.660;2023-03-01T09:27:27;8.12;63.23
64652;HTU21D;51062;45.120;37.660;2023-03-01T09:29:54;8.15;63.21
64652;HTU21D;51062;45.120;37.660;2023-03-01T09:32:21;8.15;63.03
64652;HTU21D;51062;45.120;37.660;2023-03-01T09:34:47;8.08;63.22
64652;HTU21D;51062;45.120;37.660;2023-03-01T09:37:34;8.16;63.30
64652;HTU21D;51062;45.120;37.660;2023-03-01T09:40:00;8.19;63.14
64652;HTU21D;51062;45.120;37.660;2023-03-01T09:42:27;8.20;63.12
64652;HTU21D;51062;45.120;37.660;2023-03-01T09:47:22;8.08;62.95
64652;HTU21D;51062;45.120;37.660;2023-03-01T09:50:01;7.97;62.89
64652;HTU21D;51062;45.120;37.660;2023-03-01T09:52:41;7.77;62.90
64652;HTU21D;51062;45.120;37.660;2023-03-01T09:55:17;7.67;63.21
64652;HTU21D;51062;45.120;37.660;2023-03-01T09:57:50;7.69;63.19
64652;HTU21D;51062;45.120;37.660;2023-03-01T10:03:07;7.85;63.05
64652;HTU21D;51062;45.120;37.660;2023-03-01T10:08:46;8.12;62.66
64652;HTU21D;51062;45.120;37.660;2023-03-01T10:11:21;8.22;0.00
64652;HTU21D;51062;45.120;37.660;2023-03-01T10:13:58;8.20;62.28
64652;HTU21D;51062;45.120;37.660;2023-03-01T10:16:42;8.21;62.40
64652;HTU21D;51062;45.120;37.660;2023-03-01T10:19:20;8.28;62.39
64652;HTU21D;51062;45.120;37.660;2023-03-01T10:21:49;8.27;62.13
64652;HTU21D;51062;45.120;37.660;2023-03-01T10:24:19;8.19;62.19
64652;HTU21D;51062;45.120;37.660;2023-03-01T10:26:58;8.27;62.30
64652;HTU21D;51062;45.120;37.660;2023-03-01T10:29:39;8.36;62.09
64652;HTU21D;51062;45.120;37.660;2023-03-01T10:32:10;8.43;61.99
64652;HTU21D;51062;45.120;37.660;2023-03-01T10:34:36;8.49;61.94
64652;HTU21D;51062;45.120;37.660;2023-03-01T10:37:16;8.64;61.89
64652;HTU21D;51062;45.120;37.660;2023-03-01T10:40:06;8.73;61.64
64652;HTU21D;51062;45.120;37.660;2023-03-01T10:42:39;8.80;61.63
64652;HTU21D;51062;45.120;37.660;2023-03-01T10:45:38;8.89;61.54
64652;HTU21D;51062;45.120;37.660;2023-03-01T10:50:35;8.83;61.63
64652;HTU21D;51062;45.120;37.660;2023-03-01T10:53:04;8.90;61.66
64652;HTU21D;51062;45.120;37.660;2023-03-01T10:55:35;0.00;61.64
64652;HTU21D;51062;45.120;37.660;2023-03-01T11:01:02;9.22;61.44
64652;HTU21D;51062;45.120;37.660;2023-03-01T11:03:37;9.22;61.35
64652;HTU21D;51062;45.120;37.660;2023-03-01T11:08:46;9.18;61.41
64652;HTU21D;51062;45.120;37.660;2023-03-01T11:16:33;8.89;61.50
64652;HTU21D;51062;45.120;37.660;2023-03-01T11:27:26;8.80;61.63
64652;HTU21D;51062;45.120;37.660;2023-03-01T11:29:58;8.96;61.48
64652;HTU21D;51062;45.120;37.660;2023-03-01T11:32:28;9.07;61.21
64652;HTU21D;51062;45.120;37.660;2023-03-01T11:35:22;9.08;61.05
64652;HTU21D;51062;45.120;37.660;2023-03-01T11:38:15;9.02;60.89
64652;HTU21D;51062;45.120;37.660;2023-03-01T11:43:26;8.72;60.78
64652;HTU21D;51062;45.120;37.660;2023-03-01T12:00:19;8.20;60.99
64652;HTU21D;51062;45.120;37.660;2023-03-01T12:25:11;7.93;60.51
64652;HTU21D;51062;45.120;37.660;2023-03-01T12:30:35;8.00;60.40
64652;HTU21D;51062;45.120;37.660;2023-03-01T12:33:22;8.06;60.33
64652;HTU21D;51062;45.120;37.660;2023-03-01T12:50:42;8.20;60.20
64652;HTU21D;51062;45.120;37.660;2023-03-01T12:53:22;8.19;60.18
64652;HTU21D;51062;45.120;37.660;2023-03-01T12:55:49;8.18;60.20
64652;HTU21D;51062;45.120;37.660;2023-03-01T13:01:21;8.03;60.19
64652;HTU21D;51062;45.120;37.660;2023-03-01T13:09:23;7.93;60.44
64652;HTU21D;51062;45.120;37.660;2023-03-01T13:11:49;7.98;60.42
64652;HTU21D;51062;45.120;37.660;2023-03-01T13:16:52;7.98;60.25
64652;HTU21D;51062;45.120;37.660;2023-03-01T13:19:22;7.94;60.25
64652;HTU21D;51062;45.120;37.660;2023-03-01T13:21:50;7.89;60.25
64652;HTU21D;51062;45.120;37.660;2023-03-01T13:24:41;7.85;60.32
64652;HTU21D;51062;45.120;37.660;2023-03-01T13:29:59;7.77;60.37
64652;HTU21D;51062;45.120;37.660;2023-03-01T13:32:31;7.72;60.36
64652;HTU21D;51062;45.120;37.660;2023-03-01T13:35:40;7.70;60.43
64652;HTU21D;51062;45.120;37.660;2023-03-01T13:37:46;7.67;60.31
64652;HTU21D;51062;45.120;37.660;2023-03-01T13:42:52;7.43;60.34
64652;HTU21D;51062;45.120;37.660;2023-03-01T13:47:52;7.22;60.42
64652;HTU21D;51062;45.120;37.660;2023-03-01T13:50:25;7.15;60.56
64652;HTU21D;51062;45.120;37.660;2023-03-01T13:53:05;7.11;60.56
64652;HTU21D;51062;45.120;37.660;2023-03-01T13:55:41;7.05;60.48
64652;HTU21D;51062;45.120;37.660;2023-03-01T13:58:29;6.98;60.50
64652;HTU21D;51062;45.120;37.660;2023-03-01T14:01:01;6.89;60.47
64652;HTU21D;51062;45.120;37.660;2023-03-01T14:03:30;6.82;60.57
64652;HTU21D;51062;45.120;37.660;2023-03-01T14:08:32;6.71;60.67
64652;HTU21D;51062;45.120;37.660;2023-03-01T14:11:30;6.71;60.70
64652;HTU21D;51062;45.120;37.660;2023-03-01T14:19:58;6.64;60.59
64652;HTU21D;51062;45.120;37.660;2023-03-01T14:22:31;6.59;60.60
64652;HTU21D;51062;45.120;37.660;2023-03-01T14:27:44;6.49;60.60
64652;HTU21D;51062;45.120;37.660;2023-03-01T14:30:41;6.39;60.64
64652;HTU21D;51062;45.120;37.660;2023-03-01T14:33:25;6.35;60.71
64652;HTU21D;51062;45.120;37.660;2023-03-01T14:36:01;6.29;60.73
64652;HTU21D;51062;45.120;37.660;2023-03-01T14:38:31;6.25;60.75
64652;HTU21D;51062;45.120;37.660;2023-03-01T14:41:07;6.16;60.76
64652;HTU21D;51062;45.120;37.660;2023-03-01T14:43:35;6.12;60.78
64652;HTU21D;51062;45.120;37.660;2023-03-01T14:46:02;6.08;60.79
64652;HTU21D;51062;45.120;37.660;2023-03-01T14:48:29;6.05;60.80
64652;HTU21D;51062;45.120;37.660;2023-03-01T14:50:56;6.00;60.81
64652;HTU21D;51062;45.120;37.660;2023-03-01T14:53:25;5.95;60.86
64652;HTU21D;51062;45.120;37.660;2023-03-01T14:56:03;5.89;60.91
64652;HTU21D;51062;45.120;37.660;2023-03-01T14:58:32;5.83;60.94
64652;HTU21D;51062;45.120;37.660;2023-03-01T15:01:02;5.78;60.98
64652;HTU21D;51062;45.120;37.660;2023-03-01T15:03:42;0.00;61.03
64652;HTU21D;51062;45.120;37.660;2023-03-01T15:06:10;5.65;61.05
64652;HTU21D;51062;45.120;37.660;2023-03-01T15:08:47;5.59;61.05
64652;HTU21D;51062;45.120;37.660;2023-03-01T15:11:24;5.50;61.08
64652;HTU21D;51062;45.120;37.660;2023-03-01T15:13:52;5.42;61.06
64652;HTU21D;51062;45.120;37.660;2023-03-01T15:16:24;5.34;61.09
64652;HTU21D;51062;45.120;37.660;2023-03-01T15:21:30;5.19;61.21
64652;HTU21D;51062;45.120;37.660;2023-03-01T15:24:20;5.11;61.28
64652;HTU21D;51062;45.120;37.660;2023-03-01T15:26:59;5.06;61.28
64652;HTU21D;51062;45.120;37.660;2023-03-01T15:29:32;5.02;61.27
64652;HTU21D;51062;45.120;37.660;2023-03-01T15:32:00;4.95;61.28
64652;HTU21D;51062;45.120;37.660;2023-03-01T15:34:34;4.89;61.31
64652;HTU21D;51062;45.120;37.660;2023-03-01T15:37:04;4.84;61.32
64652;HTU21D;51062;45.120;37.660;2023-03-01T15:39:40;4.80;61.32
64652;HTU21D;51062;45.120;37.660;2023-03-01T15:47:56;4.65;61.43
64652;HTU21D;51062;45.120;37.660;2023-03-01T15:50:33;4.62;61.39
64652;HTU21D;51062;45.120;37.660;2023-03-01T15:53:05;4.57;61.41
64652;HTU21D;51062;45.120;37.660;2023-03-01T15:55:34;4.53;61.41
64652;HTU21D;51062;45.120;37.660;2023-03-01T15:58:04;4.51;61.34
64652;HTU21D;51062;45.120;37.660;2023-03-01T16:00:33;4.48;61.29
64652;HTU21D;51062;45.120;37.660;2023-03-01T16:02:59;4.42;61.29
64652;HTU21D;51062;45.120;37.660;2023-03-01T16:05:29;4.36;61.32
64652;HTU21D;51062;45.120;37.660;2023-03-01T16:07:56;4.32;61.32
64652;HTU21D;51062;45.120;37.660;2023-03-01T16:10:23;4.24;61.40
64652;HTU21D;51062;45.120;37.660;2023-03-01T16:12:50;4.16;61.45
64652;HTU21D;51062;45.120;37.660;2023-03-01T16:15:23;4.09;61.52
64652;HTU21D;51062;45.120;37.660;2023-03-01T16:17:50;4.04;61.53
64652;HTU21D;51062;45.120;37.660;2023-03-01T16:20:22;4.00;0.00
64652;HTU21D;51062;45.120;37.660;2023-03-01T16:22:48;3.94;61.57
64652;HTU21D;51062;45.120;37.660;2023-03-01T16:25:16;3.89;61.57
64652;HTU21D;51062;45.120;37.660;2023-03-01T16:27:49;3.84;61.59
64652;HTU21D;51062;45.120;37.660;2023-03-01T16:30:19;3.78;0.00
64652;HTU21D;51062;45.120;37.660;2023-03-01T16:32:49;0.00;0.00
64652;HTU21D;51062;45.120;37.660;2023-03-01T16:35:18;0.00;61.63
64652;HTU21D;51062;45.120;37.660;2023-03-01T16:37:46;3.67;61.61
64652;HTU21D;51062;45.120;37.660;2023-03-01T16:40:24;3.61;61.60
64652;HTU21D;51062;45.120;37.660;2023-03-01T16:42:52;0.00;0.00
64652;HTU21D;51062;45.120;37.660;2023-03-01T16:45:19;0.00;0.00
64652;HTU21D;51062;45.120;37.660;2023-03-01T16:47:45;3.47;61.65
64652;HTU21D;51062;45.120;37.660;2023-03-01T16:50:11;3.42;61.64
64652;HTU21D;51062;45.120;37.660;2023-03-01T16:52:38;3.39;61.64
64652;HTU21D;51062;45.120;37.660;2023-03-01T16:55:06;3.32;61.67
64652;HTU21D;51062;45.120;37.660;2023-03-01T16:57:52;3.24;61.73
64652;HTU21D;51062;45.120;37.660;2023-03-01T17:00:19;3.15;61.79
64652;HTU21D;51062;45.120;37.660;2023-03-01T17:02:45;3.06;61.89
64652;HTU21D;51062;45.120;37.660;2023-03-01T17:05:31;0.00;61.91
64652;HTU21D;51062;45.120;37.660;2023-03-01T17:07:57;2.96;61.96
64652;HTU21D;51062;45.120;37.660;2023-03-01T17:10:25;2.88;62.01
64652;HTU21D;51062;45.120;37.660;2023-03-01T17:13:11;2.83;62.05
64652;HTU21D;51062;45.120;37.660;2023-03-01T17:15:39;2.78;62.10
64652;HTU21D;51062;45.120;37.660;2023-03-01T17:18:07;2.71;62.12
64652;HTU21D;51062;45.120;37.660;2023-03-01T17:20:34;2.66;62.19
64652;HTU21D;51062;45.120;37.660;2023-03-01T17:23:00;2.62;62.26
64652;HTU21D;51062;45.120;37.660;2023-03-01T17:25:26;2.61;62.20
64652;HTU21D;51062;45.120;37.660;2023-03-01T17:27:52;2.59;62.14
64652;HTU21D;51062;45.120;37.660;2023-03-01T17:30:20;2.57;0.00
64652;HTU21D;51062;45.120;37.660;2023-03-01T17:32:46;2.56;62.14
64652;HTU21D;51062;45.120;37.660;2023-03-01T17:35:13;2.56;62.15
64652;HTU21D;51062;45.120;37.660;2023-03-01T17:37:39;0.00;0.00
64652;HTU21D;51062;45.120;37.660;2023-03-01T17:40:11;2.55;62.15
64652;HTU21D;51062;45.120;37.660;2023-03-01T17:42:37;2.51;0.00
64652;HTU21D;51062;45.120;37.660;2023-03-01T17:45:04;2.59;62.12